createdAt,value
2018-08-19T00:01:45.373Z,64.50
2018-08-19T00:04:14.583Z,64.41
2018-08-19T00:06:43.872Z,64.68
2018-08-19T00:09:12.452Z,64.68
2018-08-19T00:11:41.620Z,64.71
2018-08-19T00:14:24.774Z,64.06
2018-08-19T00:16:53.839Z,65.29
2018-08-19T00:19:22.247Z,64.94
2018-08-19T00:21:50.778Z,64.97
2018-08-19T00:24:19.140Z,65.38
2018-08-19T00:26:47.699Z,66.00
2018-08-19T00:29:22.559Z,66.58
2018-08-19T00:31:51.625Z,65.99
2018-08-19T00:34:30.446Z,65.24
2018-08-19T00:36:59.818Z,66.73
2018-08-19T00:39:28.233Z,67.02
2018-08-19T00:41:57.153Z,66.66
2018-08-19T00:44:25.608Z,66.61
2018-08-19T00:46:55.345Z,65.76
2018-08-19T00:49:23.792Z,65.67
2018-08-19T00:51:59.239Z,66.74
2018-08-19T00:54:28.743Z,66.47
2018-08-19T00:56:58.253Z,66.62
2018-08-19T00:59:28.369Z,66.30
2018-08-19T01:01:56.807Z,66.55
2018-08-19T01:04:25.536Z,66.57
2018-08-19T01:06:55.043Z,67.40
2018-08-19T01:09:30.720Z,66.92
2018-08-19T01:11:59.278Z,66.73
2018-08-19T01:14:27.658Z,66.39
2018-08-19T01:16:56.139Z,66.68
2018-08-19T01:19:24.988Z,66.36
2018-08-19T01:21:54.127Z,67.41
2018-08-19T01:24:23.400Z,66.21
2018-08-19T01:26:51.863Z,67.05
2018-08-19T01:29:37.291Z,66.50
2018-08-19T01:32:12.009Z,66.26
2018-08-19T01:34:43.649Z,66.44
2018-08-19T01:37:12.488Z,66.50
2018-08-19T01:39:40.942Z,66.97
2018-08-19T01:42:09.728Z,67.21
2018-08-19T01:44:38.208Z,67.25
2018-08-19T01:47:06.586Z,67.43
2018-08-19T01:49:34.998Z,67.84
2018-08-19T01:52:03.549Z,67.12
2018-08-19T01:54:32.030Z,68.30
2018-08-19T01:57:02.383Z,67.49
2018-08-19T01:59:33.092Z,67.63
2018-08-19T02:02:03.641Z,68.10
2018-08-19T02:04:33.255Z,67.83
2018-08-19T02:07:02.127Z,68.28
2018-08-19T02:09:30.562Z,68.58
2018-08-19T02:12:00.010Z,68.62
2018-08-19T02:14:28.409Z,68.14
2018-08-19T02:16:57.477Z,68.90
2018-08-19T02:19:25.855Z,67.75
2018-08-19T02:21:54.539Z,68.94
2018-08-19T02:24:23.635Z,68.62
2018-08-19T02:26:52.015Z,68.36
2018-08-19T02:29:36.983Z,69.10
2018-08-19T02:32:10.676Z,68.03
2018-08-19T02:34:40.398Z,68.87
2018-08-19T02:37:10.108Z,68.79
2018-08-19T02:39:40.948Z,68.62
2018-08-19T02:42:27.447Z,69.35
2018-08-19T02:45:03.335Z,68.41
2018-08-19T02:47:32.403Z,68.55
2018-08-19T02:50:00.880Z,68.83
2018-08-19T02:52:31.417Z,69.61
2018-08-19T02:55:02.039Z,68.94
2018-08-19T02:57:31.753Z,68.43
2018-08-19T03:00:01.162Z,68.65
2018-08-19T03:02:34.415Z,68.29
2018-08-19T03:05:04.773Z,68.96
2018-08-19T03:07:33.386Z,68.60
2018-08-19T03:10:09.107Z,69.05
2018-08-19T03:12:37.801Z,69.29
2018-08-19T03:15:08.764Z,68.48
2018-08-19T03:17:37.158Z,68.73
2018-08-19T03:20:08.494Z,69.15
2018-08-19T03:22:36.841Z,69.25
2018-08-19T03:25:05.698Z,68.91
2018-08-19T03:27:34.080Z,68.61
2018-08-19T03:30:03.627Z,69.27
2018-08-19T03:32:31.996Z,68.61
2018-08-19T03:35:34.607Z,68.32
2018-08-19T03:38:11.197Z,69.16
2018-08-19T03:40:39.524Z,68.96
2018-08-19T03:43:08.041Z,68.54
2018-08-19T03:45:36.382Z,69.30
2018-08-19T03:48:05.442Z,69.16
2018-08-19T03:50:36.826Z,68.70
2018-08-19T03:53:05.365Z,68.79
2018-08-19T03:55:34.413Z,68.98
2018-08-19T03:58:04.926Z,68.56
2018-08-19T04:00:34.444Z,68.79
2018-08-19T04:03:12.073Z,68.48
2018-08-19T04:05:44.891Z,68.92
2018-08-19T04:08:14.287Z,68.37
2018-08-19T04:10:43.837Z,68.90
2018-08-19T04:13:26.413Z,68.77
2018-08-19T04:15:56.976Z,68.55
2018-08-19T04:18:30.751Z,68.79
2018-08-19T04:21:00.657Z,68.57
2018-08-19T04:23:29.746Z,68.22
2018-08-19T04:25:58.069Z,68.70
2018-08-19T04:28:26.408Z,68.85
2018-08-19T04:30:56.671Z,68.22
2018-08-19T04:33:30.210Z,69.42
2018-08-19T04:35:58.600Z,69.09
2018-08-19T04:38:28.084Z,68.76
2018-08-19T04:40:57.046Z,68.75
2018-08-19T04:43:28.393Z,68.16
2018-08-19T04:45:56.771Z,68.92
2018-08-19T04:48:26.593Z,68.33
2018-08-19T04:50:56.297Z,67.79
2018-08-19T04:53:24.680Z,67.91
2018-08-19T04:55:53.872Z,67.42
2018-08-19T04:58:22.292Z,67.86
2018-08-19T05:00:50.702Z,67.56
2018-08-19T05:03:19.119Z,67.18
2018-08-19T05:05:47.492Z,67.56
2018-08-19T05:08:15.984Z,67.71
2018-08-19T05:10:44.254Z,67.12
2018-08-19T05:13:13.141Z,66.48
2018-08-19T05:15:42.344Z,66.95
2018-08-19T05:18:10.748Z,66.24
2018-08-19T05:20:39.203Z,66.44
2018-08-19T05:23:08.092Z,65.77
2018-08-19T05:25:51.189Z,65.37
2018-08-19T05:28:19.749Z,65.06
2018-08-19T05:30:48.281Z,65.29
2018-08-19T05:33:16.616Z,65.41
2018-08-19T05:35:44.932Z,66.17
2018-08-19T05:38:13.328Z,65.51
2018-08-19T05:40:46.852Z,65.19
2018-08-19T05:43:15.252Z,64.82
2018-08-19T05:45:50.665Z,65.02
2018-08-19T05:48:19.015Z,64.93
2018-08-19T05:50:47.350Z,64.76
2018-08-19T05:53:15.699Z,64.89
2018-08-19T05:55:44.199Z,64.00
2018-08-19T05:58:12.533Z,63.08
2018-08-19T06:00:44.084Z,64.09
2018-08-19T06:03:12.435Z,63.12
2018-08-19T06:05:40.784Z,63.47
2018-08-19T06:08:10.148Z,62.53
2018-08-19T06:10:39.064Z,62.39
2018-08-19T06:13:08.678Z,62.19
2018-08-19T06:15:37.379Z,61.66
2018-08-19T06:18:05.868Z,61.23
2018-08-19T06:20:34.535Z,60.00
2018-08-19T06:23:02.909Z,59.35
2018-08-19T06:25:31.287Z,60.05
2018-08-19T06:27:59.835Z,60.55
2018-08-19T06:30:28.319Z,59.55
2018-08-19T06:32:56.699Z,60.09
2018-08-19T06:35:25.077Z,59.03
2018-08-19T06:37:53.504Z,57.78
2018-08-19T06:40:23.169Z,58.63
2018-08-19T06:42:51.521Z,55.12
2018-08-19T06:45:19.922Z,57.81
2018-08-19T06:47:48.339Z,57.36
2018-08-19T06:50:39.040Z,57.43
2018-08-19T06:53:07.435Z,56.89
2018-08-19T06:55:36.277Z,55.89
2018-08-19T06:58:04.939Z,55.50
2018-08-19T07:00:33.732Z,55.22
2018-08-19T07:03:03.541Z,54.60
2018-08-19T07:05:32.554Z,52.09
2018-08-19T07:08:01.161Z,54.29
2018-08-19T07:10:38.256Z,53.64
2018-08-19T07:13:09.170Z,52.23
2018-08-19T07:15:38.746Z,51.79
2018-08-19T07:18:08.747Z,48.56
2018-08-19T07:20:37.590Z,52.21
2018-08-19T07:23:06.411Z,51.46
2018-08-19T07:25:34.796Z,50.95
2018-08-19T07:28:03.159Z,49.50
2018-08-19T07:30:31.562Z,49.16
2018-08-19T07:32:59.948Z,49.59
2018-08-19T07:35:28.299Z,48.85
2018-08-19T07:37:56.649Z,48.96
2018-08-19T07:40:25.029Z,47.85
2018-08-19T07:42:53.376Z,49.71
2018-08-19T07:45:21.757Z,49.45
2018-08-19T07:47:50.115Z,48.97
2018-08-19T07:50:18.480Z,49.23
2018-08-19T07:52:46.856Z,46.79
2018-08-19T07:55:15.242Z,46.35
2018-08-19T07:57:43.654Z,46.00
2018-08-19T08:00:12.673Z,45.23
2018-08-19T08:02:41.107Z,44.05
2018-08-19T08:05:10.661Z,43.66
2018-08-19T08:07:43.338Z,42.03
2018-08-19T08:10:11.777Z,42.79
2018-08-19T08:12:40.212Z,41.89
2018-08-19T08:15:08.883Z,41.66
2018-08-19T08:17:38.376Z,39.62
2018-08-19T08:20:07.539Z,39.98
2018-08-19T08:22:36.874Z,38.08
2018-08-19T08:25:07.247Z,36.24
2018-08-19T08:27:36.718Z,36.78
2018-08-19T08:30:09.697Z,36.52
2018-08-19T08:32:38.519Z,33.16
2018-08-19T08:35:07.843Z,35.77
2018-08-19T08:37:36.240Z,33.37
2018-08-19T08:40:10.493Z,32.26
2018-08-19T08:42:43.336Z,31.85
2018-08-19T08:45:13.106Z,32.81
2018-08-19T08:47:41.745Z,32.81
2018-08-19T08:50:11.472Z,31.67
2018-08-19T08:52:42.306Z,31.66
2018-08-19T08:55:11.494Z,30.87
2018-08-19T08:57:39.860Z,29.20
2018-08-19T09:00:09.812Z,30.17
2018-08-19T09:02:38.194Z,30.01
2018-08-19T09:05:09.208Z,26.79
2018-08-19T09:07:37.614Z,28.61
2018-08-19T09:10:06.075Z,27.69
2018-08-19T09:12:45.213Z,26.78
2018-08-19T09:15:13.632Z,27.73
2018-08-19T09:17:42.062Z,27.49
2018-08-19T09:20:11.155Z,27.51
2018-08-19T09:22:39.608Z,26.38
2018-08-19T09:25:09.080Z,27.77
2018-08-19T09:27:38.339Z,26.66
2018-08-19T09:30:07.771Z,26.32
2018-08-19T09:32:50.243Z,25.98
2018-08-19T09:35:18.620Z,25.23
2018-08-19T09:37:47.005Z,25.61
2018-08-19T09:40:15.401Z,24.94
2018-08-19T09:42:43.773Z,25.27
2018-08-19T09:45:12.153Z,24.72
2018-08-19T09:47:40.602Z,24.45
2018-08-19T09:50:08.996Z,22.96
2018-08-19T09:52:37.374Z,22.21
2018-08-19T09:55:09.852Z,24.10
2018-08-19T09:57:42.697Z,22.17
2018-08-19T10:00:12.719Z,24.50
2018-08-19T10:02:46.474Z,22.02
2018-08-19T10:05:19.048Z,22.49
2018-08-19T10:07:47.471Z,22.13
2018-08-19T10:10:15.898Z,22.88
2018-08-19T10:12:45.042Z,22.38
2018-08-19T10:15:13.437Z,22.31
2018-08-19T10:17:41.856Z,23.02
2018-08-19T10:20:10.252Z,22.90
2018-08-19T10:22:41.944Z,23.85
2018-08-19T10:25:14.979Z,22.24
2018-08-19T10:27:44.963Z,22.55
2018-08-19T10:30:13.615Z,21.92
2018-08-19T10:32:42.075Z,21.04
2018-08-19T10:35:15.729Z,20.23
2018-08-19T10:37:44.123Z,21.86
2018-08-19T10:40:12.545Z,21.55
2018-08-19T10:42:41.159Z,22.37
2018-08-19T10:45:14.932Z,21.38
2018-08-19T10:47:43.615Z,21.91
2018-08-19T10:50:11.979Z,22.21
2018-08-19T10:52:41.927Z,21.35
2018-08-19T10:55:11.454Z,21.24
2018-08-19T10:57:40.033Z,23.79
2018-08-19T11:00:13.601Z,23.96
2018-08-19T11:02:42.224Z,24.29
2018-08-19T11:05:10.699Z,24.22
2018-08-19T11:07:39.073Z,24.15
2018-08-19T11:10:28.579Z,23.96
2018-08-19T11:12:58.295Z,24.25
2018-08-19T11:15:53.336Z,24.90
2018-08-19T11:18:30.573Z,27.14
2018-08-19T11:21:05.257Z,26.17
2018-08-19T11:23:40.886Z,26.08
2018-08-19T11:26:09.793Z,28.44
2018-08-19T11:28:40.360Z,27.42
2018-08-19T11:31:22.092Z,28.29
2018-08-19T11:33:51.332Z,28.53
2018-08-19T11:36:20.624Z,30.49
2018-08-19T11:38:51.986Z,29.77
2018-08-19T11:41:20.892Z,30.55
2018-08-19T11:43:50.182Z,30.43
2018-08-19T11:46:18.564Z,30.45
2018-08-19T11:48:54.944Z,30.78
2018-08-19T11:51:37.575Z,30.92
2018-08-19T11:54:06.033Z,31.75
2018-08-19T11:56:34.561Z,32.28
2018-08-19T11:59:02.993Z,34.36
2018-08-19T12:01:31.389Z,32.47
2018-08-19T12:04:09.248Z,32.79
2018-08-19T12:06:37.616Z,32.94
2018-08-19T12:09:08.688Z,32.97
2018-08-19T12:11:38.420Z,33.47
2018-08-19T12:14:08.721Z,34.05
2018-08-19T12:16:43.374Z,34.24
2018-08-19T12:19:17.057Z,34.16
2018-08-19T12:21:51.277Z,33.37
2018-08-19T12:24:22.670Z,33.52
2018-08-19T12:26:53.139Z,36.68
2018-08-19T12:29:22.029Z,34.48
2018-08-19T12:31:52.268Z,35.27
2018-08-19T12:34:20.646Z,34.93
2018-08-19T12:36:49.060Z,35.13
2018-08-19T12:39:17.521Z,35.34
2018-08-19T12:41:51.018Z,35.48
2018-08-19T12:44:19.388Z,34.72
2018-08-19T12:47:02.919Z,34.66
2018-08-19T12:49:35.079Z,34.48
2018-08-19T12:52:03.530Z,35.14
2018-08-19T12:54:31.963Z,35.07
2018-08-19T12:57:00.391Z,35.56
2018-08-19T12:59:28.840Z,36.09
2018-08-19T13:01:57.201Z,36.90
2018-08-19T13:04:25.583Z,35.51
2018-08-19T13:07:07.986Z,36.61
2018-08-19T13:09:36.429Z,35.83
2018-08-19T13:12:06.872Z,35.48
2018-08-19T13:14:35.277Z,35.62
2018-08-19T13:17:03.700Z,35.24
2018-08-19T13:19:32.637Z,35.44
2018-08-19T13:22:01.828Z,35.42
2018-08-19T13:24:34.371Z,35.67
2018-08-19T13:27:03.097Z,35.61
2018-08-19T13:29:31.871Z,35.84
2018-08-19T13:32:00.265Z,36.14
2018-08-19T13:34:29.047Z,36.29
2018-08-19T13:36:57.974Z,37.58
2018-08-19T13:39:26.923Z,36.39
2018-08-19T13:41:55.517Z,36.57
2018-08-19T13:44:23.988Z,36.93
2018-08-19T13:46:52.380Z,36.27
2018-08-19T13:49:23.592Z,36.77
2018-08-19T13:51:52.200Z,36.29
2018-08-19T13:54:21.602Z,36.38
2018-08-19T13:56:50.037Z,36.67
2018-08-19T13:59:18.680Z,36.99
2018-08-19T14:01:47.043Z,36.94
2018-08-19T14:04:15.527Z,36.64
2018-08-19T14:06:45.047Z,37.22
2018-08-19T14:09:13.948Z,37.39
2018-08-19T14:11:42.381Z,36.24
2018-08-19T14:14:11.408Z,35.83
2018-08-19T14:16:39.845Z,36.12
2018-08-19T14:19:08.706Z,36.33
2018-08-19T14:21:37.059Z,37.08
2018-08-19T14:24:05.500Z,37.29
2018-08-19T14:26:34.453Z,37.18
2018-08-19T14:29:03.004Z,36.66
2018-08-19T14:31:31.688Z,36.73
2018-08-19T14:34:00.350Z,36.92
2018-08-19T14:36:28.814Z,36.98
2018-08-19T14:38:57.215Z,36.67
2018-08-19T14:41:25.596Z,36.93
2018-08-19T14:44:00.347Z,36.72
2018-08-19T14:46:29.636Z,36.39
2018-08-19T14:48:59.160Z,36.87
2018-08-19T14:51:28.687Z,36.36
2018-08-19T14:54:20.671Z,37.29
2018-08-19T14:56:49.225Z,36.75
2018-08-19T14:59:20.122Z,36.55
2018-08-19T15:01:48.460Z,37.44
2018-08-19T15:04:17.795Z,37.46
2018-08-19T15:06:47.101Z,37.94
2018-08-19T15:09:28.163Z,38.13
2018-08-19T15:12:05.161Z,38.41
2018-08-19T15:14:34.834Z,37.98
2018-08-19T15:17:03.197Z,37.73
2018-08-19T15:19:31.550Z,37.77
2018-08-19T15:21:59.896Z,38.47
2018-08-19T15:24:28.204Z,38.56
2018-08-19T15:26:56.525Z,38.13
2018-08-19T15:29:30.670Z,38.58
2018-08-19T15:32:02.465Z,38.39
2018-08-19T15:34:30.839Z,38.69
2018-08-19T15:36:59.215Z,38.39
2018-08-19T15:39:27.558Z,38.74
2018-08-19T15:41:55.899Z,38.75
2018-08-19T15:44:24.245Z,38.63
2018-08-19T15:46:52.627Z,38.46
2018-08-19T15:49:22.204Z,38.02
2018-08-19T15:51:50.578Z,38.68
2018-08-19T15:54:18.916Z,38.95
2018-08-19T15:56:47.297Z,38.25
2018-08-19T15:59:15.704Z,38.74
2018-08-19T16:01:44.239Z,38.54
2018-08-19T16:04:19.720Z,38.42
2018-08-19T16:06:50.386Z,39.40
2018-08-19T16:09:21.126Z,38.93
2018-08-19T16:11:50.325Z,38.79
2018-08-19T16:14:30.439Z,39.50
2018-08-19T16:17:00.089Z,39.06
2018-08-19T16:19:28.458Z,39.59
2018-08-19T16:21:57.953Z,39.28
2018-08-19T16:24:26.859Z,40.13
2018-08-19T16:26:55.242Z,43.49
2018-08-19T16:29:23.619Z,43.02
2018-08-19T16:31:52.055Z,43.49
2018-08-19T16:34:20.375Z,43.49
2018-08-19T16:36:49.047Z,43.31
2018-08-19T16:39:18.313Z,42.40
2018-08-19T16:41:46.616Z,42.04
2018-08-19T16:44:14.993Z,42.90
2018-08-19T16:46:43.359Z,43.64
2018-08-19T16:49:11.727Z,42.87
2018-08-19T16:51:40.056Z,42.32
2018-08-19T16:54:08.729Z,43.14
2018-08-19T16:56:37.047Z,43.25
2018-08-19T16:59:05.441Z,42.61
2018-08-19T17:01:33.778Z,42.61
2018-08-19T17:04:02.127Z,43.54
2018-08-19T17:06:30.477Z,42.56
2018-08-19T17:08:58.804Z,42.47
2018-08-19T17:11:27.139Z,42.73
2018-08-19T17:13:55.474Z,43.23
2018-08-19T17:16:23.793Z,43.38
2018-08-19T17:18:52.124Z,43.86
2018-08-19T17:21:20.470Z,43.42
2018-08-19T17:23:49.030Z,44.26
2018-08-19T17:26:23.739Z,43.76
2018-08-19T17:28:52.396Z,43.91
2018-08-19T17:31:21.064Z,43.84
2018-08-19T17:33:49.412Z,44.15
2018-08-19T17:36:26.873Z,44.07
2018-08-19T17:38:55.214Z,43.65
2018-08-19T17:41:23.581Z,43.98
2018-08-19T17:43:51.957Z,43.32
2018-08-19T17:46:20.567Z,43.29
2018-08-19T17:48:48.921Z,42.65
2018-08-19T17:51:35.528Z,42.81
2018-08-19T17:54:07.174Z,43.24
2018-08-19T17:56:35.533Z,43.54
2018-08-19T17:59:04.969Z,43.34
2018-08-19T18:01:33.286Z,43.24
2018-08-19T18:04:01.624Z,43.47
2018-08-19T18:06:29.996Z,43.51
2018-08-19T18:08:58.342Z,43.86
2018-08-19T18:11:26.759Z,44.45
2018-08-19T18:13:55.139Z,44.12
2018-08-19T18:16:23.516Z,44.14
2018-08-19T18:18:51.995Z,44.11
2018-08-19T18:21:20.335Z,44.84
2018-08-19T18:23:49.598Z,44.67
2018-08-19T18:26:17.953Z,44.54
2018-08-19T18:28:48.045Z,44.41
2018-08-19T18:31:20.517Z,45.14
2018-08-19T18:34:07.152Z,44.94
2018-08-19T18:36:36.172Z,44.81
2018-08-19T18:39:06.511Z,44.70
2018-08-19T18:41:37.139Z,44.90
2018-08-19T18:44:06.949Z,45.07
2018-08-19T18:46:35.733Z,45.20
2018-08-19T18:49:12.615Z,45.50
2018-08-19T18:51:42.440Z,45.59
2018-08-19T18:54:32.543Z,46.19
2018-08-19T18:57:03.963Z,45.57
2018-08-19T18:59:32.318Z,45.76
2018-08-19T19:02:01.952Z,46.30
2018-08-19T19:04:30.322Z,46.58
2018-08-19T19:06:58.753Z,46.75
2018-08-19T19:09:39.111Z,46.38
2018-08-19T19:12:07.520Z,46.36
2018-08-19T19:14:36.178Z,46.67
2018-08-19T19:17:04.541Z,46.86
2018-08-19T19:19:37.036Z,47.67
2018-08-19T19:22:05.359Z,48.38
2018-08-19T19:24:37.743Z,48.85
2018-08-19T19:27:06.211Z,48.87
2018-08-19T19:29:34.571Z,48.66
2018-08-19T19:32:14.248Z,48.94
2018-08-19T19:34:42.594Z,48.61
2018-08-19T19:37:11.071Z,48.25
2018-08-19T19:39:39.525Z,48.12
2018-08-19T19:42:10.822Z,48.55
2018-08-19T19:44:39.318Z,48.84
2018-08-19T19:47:08.994Z,49.08
2018-08-19T19:49:49.400Z,49.84
2018-08-19T19:52:17.774Z,50.04
2018-08-19T19:54:46.096Z,50.20
2018-08-19T19:57:14.431Z,50.61
2018-08-19T19:59:42.768Z,49.83
2018-08-19T20:02:17.054Z,50.34
2018-08-19T20:04:45.771Z,50.05
2018-08-19T20:07:14.379Z,50.15
2018-08-19T20:09:42.840Z,50.21
2018-08-19T20:12:16.524Z,50.33
2018-08-19T20:14:49.243Z,51.23
2018-08-19T20:17:18.265Z,50.71
2018-08-19T20:19:46.651Z,51.34
2018-08-19T20:22:17.097Z,51.14
2018-08-19T20:24:45.508Z,51.66
2018-08-19T20:27:14.013Z,52.52
2018-08-19T20:29:42.330Z,53.08
2018-08-19T20:32:10.672Z,52.67
2018-08-19T20:34:39.557Z,52.98
2018-08-19T20:37:07.876Z,53.36
2018-08-19T20:39:36.207Z,53.00
2018-08-19T20:42:04.562Z,53.59
2018-08-19T20:44:32.892Z,53.08
2018-08-19T20:47:01.250Z,53.32
2018-08-19T20:49:29.596Z,53.26
2018-08-19T20:51:57.994Z,53.76
2018-08-19T20:54:26.328Z,54.05
2018-08-19T20:56:55.304Z,54.21
2018-08-19T20:59:28.958Z,53.38
2018-08-19T21:01:57.303Z,54.35
2018-08-19T21:04:25.630Z,54.31
2018-08-19T21:06:54.203Z,54.56
2018-08-19T21:09:22.724Z,54.22
2018-08-19T21:11:51.458Z,54.44
2018-08-19T21:14:20.454Z,54.49
2018-08-19T21:16:49.184Z,55.28
2018-08-19T21:19:17.526Z,55.73
2018-08-19T21:21:45.848Z,55.05
2018-08-19T21:24:14.247Z,55.32
2018-08-19T21:26:45.961Z,54.89
2018-08-19T21:29:14.278Z,55.20
2018-08-19T21:31:42.625Z,55.17
2018-08-19T21:34:10.972Z,55.52
2018-08-19T21:36:39.316Z,56.17
2018-08-19T21:39:08.459Z,56.72
2018-08-19T21:41:46.762Z,56.26
2018-08-19T21:44:15.574Z,56.25
2018-08-19T21:46:43.921Z,55.74
2018-08-19T21:49:12.642Z,56.92
2018-08-19T21:51:41.059Z,56.63
2018-08-19T21:54:11.185Z,56.16
2018-08-19T21:56:39.823Z,56.21
2018-08-19T21:59:13.604Z,55.98
2018-08-19T22:01:50.148Z,56.82
2018-08-19T22:04:18.933Z,56.73
2018-08-19T22:06:47.498Z,57.23
2018-08-19T22:09:29.705Z,57.37
2018-08-19T22:11:59.074Z,57.04
2018-08-19T22:14:27.598Z,56.81
2018-08-19T22:16:58.538Z,57.23
2018-08-19T22:19:27.088Z,57.38
2018-08-19T22:21:55.491Z,57.93
2018-08-19T22:24:23.884Z,59.85
2018-08-19T22:26:52.415Z,57.47
2018-08-19T22:29:21.731Z,57.88
2018-08-19T22:31:50.663Z,57.89
2018-08-19T22:34:19.039Z,58.39
2018-08-19T22:36:47.470Z,58.31
2018-08-19T22:39:17.129Z,58.63
2018-08-19T22:41:48.614Z,58.30
2018-08-19T22:44:17.364Z,58.60
2018-08-19T22:46:45.849Z,58.40
2018-08-19T22:49:14.208Z,58.20
2018-08-19T22:51:42.586Z,58.52
2018-08-19T22:54:10.919Z,58.63
2018-08-19T22:56:39.256Z,59.53
2018-08-19T22:59:07.680Z,58.74
2018-08-19T23:01:41.376Z,60.04
2018-08-19T23:04:09.730Z,60.07
2018-08-19T23:06:38.064Z,59.81
2018-08-19T23:09:07.223Z,60.16
2018-08-19T23:11:41.000Z,59.69
2018-08-19T23:14:20.672Z,60.71
2018-08-19T23:16:48.982Z,59.63
2018-08-19T23:19:19.560Z,60.57
2018-08-19T23:21:47.899Z,60.13
2018-08-19T23:24:16.246Z,60.46
2018-08-19T23:26:44.547Z,60.06
2018-08-19T23:29:12.880Z,59.95
2018-08-19T23:31:41.253Z,60.92
2018-08-19T23:34:09.629Z,61.24
2018-08-19T23:36:37.947Z,60.77
2018-08-19T23:39:08.089Z,60.99
2018-08-19T23:41:36.406Z,60.54
2018-08-19T23:44:04.775Z,60.79
2018-08-19T23:46:33.141Z,60.63
2018-08-19T23:49:01.477Z,61.22
2018-08-19T23:51:30.799Z,60.41
2018-08-19T23:53:59.989Z,60.11
2018-08-19T23:56:28.660Z,60.49
2018-08-19T23:58:57.377Z,60.51
